sensor_id;sensor_type;location;lat;lon;timestamp;pressure;altitude;pressure_sealevel;temperature;humidity
75692;BME280;64307;52.508;6.090;2022-12-19T00:01:17;101874.72;;;0.61;89.98
75692;BME280;64307;52.508;6.090;2022-12-19T00:03:52;101860.78;;;0.58;90.37
75692;BME280;64307;52.508;6.090;2022-12-19T00:06:18;101854.53;;;0.57;90.27
75692;BME280;64307;52.508;6.090;2022-12-19T00:08:46;101867.28;;;0.62;90.45
75692;BME280;64307;52.508;6.090;2022-12-19T00:11:12;101874.22;;;0.59;91.05
75692;BME280;64307;52.508;6.090;2022-12-19T00:13:39;101876.84;;;0.64;90.34
75692;BME280;64307;52.508;6.090;2022-12-19T00:16:07;101887.91;;;0.73;90.38
75692;BME280;64307;52.508;6.090;2022-12-19T00:18:33;101903.66;;;0.67;90.49
75692;BME280;64307;52.508;6.090;2022-12-19T00:21:00;101881.59;;;0.72;90.25
75692;BME280;64307;52.508;6.090;2022-12-19T00:23:27;101882.59;;;0.76;89.75
75692;BME280;64307;52.508;6.090;2022-12-19T00:25:53;101889.09;;;0.80;89.84
75692;BME280;64307;52.508;6.090;2022-12-19T00:28:18;101877.63;;;0.78;90.31
75692;BME280;64307;52.508;6.090;2022-12-19T00:30:44;101877.84;;;0.82;90.31
75692;BME280;64307;52.508;6.090;2022-12-19T00:33:09;101875.28;;;0.86;90.15
75692;BME280;64307;52.508;6.090;2022-12-19T00:35:34;101882.28;;;0.92;89.92
75692;BME280;64307;52.508;6.090;2022-12-19T00:38:00;101876.00;;;0.91;89.80
75692;BME280;64307;52.508;6.090;2022-12-19T00:40:25;101869.91;;;0.94;89.72
75692;BME280;64307;52.508;6.090;2022-12-19T00:42:52;101872.16;;;0.92;89.42
75692;BME280;64307;52.508;6.090;2022-12-19T00:45:17;101869.69;;;0.91;90.26
75692;BME280;64307;52.508;6.090;2022-12-19T00:47:42;101846.66;;;0.92;89.82
75692;BME280;64307;52.508;6.090;2022-12-19T00:50:08;101837.09;;;0.89;90.51
75692;BME280;64307;52.508;6.090;2022-12-19T00:52:33;101820.97;;;0.88;90.37
75692;BME280;64307;52.508;6.090;2022-12-19T00:54:58;101808.25;;;0.92;90.45
75692;BME280;64307;52.508;6.090;2022-12-19T00:57:24;101802.78;;;0.92;90.75
75692;BME280;64307;52.508;6.090;2022-12-19T00:59:49;101804.53;;;0.88;91.08
75692;BME280;64307;52.508;6.090;2022-12-19T01:02:14;101804.53;;;0.88;91.72
75692;BME280;64307;52.508;6.090;2022-12-19T01:04:40;101796.66;;;0.95;91.26
75692;BME280;64307;52.508;6.090;2022-12-19T01:07:05;101791.91;;;0.87;92.23
75692;BME280;64307;52.508;6.090;2022-12-19T01:09:34;101789.75;;;0.97;91.68
75692;BME280;64307;52.508;6.090;2022-12-19T01:12:00;101788.94;;;0.97;91.78
75692;BME280;64307;52.508;6.090;2022-12-19T01:14:44;101778.91;;;0.92;92.71
75692;BME280;64307;52.508;6.090;2022-12-19T01:17:09;101789.16;;;1.00;92.73
75692;BME280;64307;52.508;6.090;2022-12-19T01:19:35;101781.28;;;1.07;92.83
75692;BME280;64307;52.508;6.090;2022-12-19T01:22:00;101765.75;;;1.03;93.18
75692;BME280;64307;52.508;6.090;2022-12-19T01:24:25;101779.19;;;1.04;93.76
75692;BME280;64307;52.508;6.090;2022-12-19T01:26:51;101760.59;;;1.01;95.05
75692;BME280;64307;52.508;6.090;2022-12-19T01:29:16;101756.41;;;1.04;95.45
75692;BME280;64307;52.508;6.090;2022-12-19T01:31:41;101751.69;;;0.96;95.69
75692;BME280;64307;52.508;6.090;2022-12-19T01:34:06;101763.47;;;0.96;95.86
75692;BME280;64307;52.508;6.090;2022-12-19T01:36:32;101763.25;;;0.93;95.55
75692;BME280;64307;52.508;6.090;2022-12-19T01:38:58;101762.97;;;0.94;95.80
75692;BME280;64307;52.508;6.090;2022-12-19T01:41:24;101764.47;;;1.00;96.27
75692;BME280;64307;52.508;6.090;2022-12-19T01:44:04;101781.09;;;1.04;96.30
75692;BME280;64307;52.508;6.090;2022-12-19T01:46:47;101769.03;;;1.05;95.83
75692;BME280;64307;52.508;6.090;2022-12-19T01:49:27;101769.13;;;1.00;96.41
75692;BME280;64307;52.508;6.090;2022-12-19T01:51:56;101762.00;;;0.99;96.65
75692;BME280;64307;52.508;6.090;2022-12-19T01:54:26;101750.44;;;1.02;96.38
75692;BME280;64307;52.508;6.090;2022-12-19T01:56:56;101738.88;;;1.05;96.76
75692;BME280;64307;52.508;6.090;2022-12-19T01:59:27;101718.97;;;0.99;96.29
75692;BME280;64307;52.508;6.090;2022-12-19T02:02:06;101732.34;;;1.01;96.63
75692;BME280;64307;52.508;6.090;2022-12-19T02:04:34;101740.56;;;1.01;97.19
75692;BME280;64307;52.508;6.090;2022-12-19T02:07:00;101736.63;;;1.07;97.04
75692;BME280;64307;52.508;6.090;2022-12-19T02:09:28;101724.84;;;1.06;96.74
75692;BME280;64307;52.508;6.090;2022-12-19T02:11:53;101725.31;;;1.08;97.22
75692;BME280;64307;52.508;6.090;2022-12-19T02:14:19;101719.66;;;1.05;97.44
75692;BME280;64307;52.508;6.090;2022-12-19T02:17:36;101715.66;;;1.11;97.76
75692;BME280;64307;52.508;6.090;2022-12-19T02:28:04;101717.84;;;1.22;97.53
75692;BME280;64307;52.508;6.090;2022-12-19T02:33:31;101717.41;;;1.29;97.95
75692;BME280;64307;52.508;6.090;2022-12-19T02:36:11;101709.03;;;1.34;97.57
75692;BME280;64307;52.508;6.090;2022-12-19T02:38:47;101703.53;;;1.34;97.40
75692;BME280;64307;52.508;6.090;2022-12-19T02:41:30;101708.72;;;1.35;97.63
75692;BME280;64307;52.508;6.090;2022-12-19T02:44:10;101711.00;;;1.42;97.76
75692;BME280;64307;52.508;6.090;2022-12-19T02:46:38;101708.97;;;1.47;97.66
75692;BME280;64307;52.508;6.090;2022-12-19T02:49:04;101699.91;;;1.47;97.24
75692;BME280;64307;52.508;6.090;2022-12-19T02:51:29;101692.66;;;1.51;97.36
75692;BME280;64307;52.508;6.090;2022-12-19T02:53:54;101697.50;;;1.54;97.29
75692;BME280;64307;52.508;6.090;2022-12-19T02:59:37;101689.09;;;1.50;97.47
75692;BME280;64307;52.508;6.090;2022-12-19T03:02:29;101680.25;;;1.53;98.50
75692;BME280;64307;52.508;6.090;2022-12-19T03:07:32;101661.69;;;1.59;97.95
75692;BME280;64307;52.508;6.090;2022-12-19T03:13:30;101663.00;;;1.61;97.77
75692;BME280;64307;52.508;6.090;2022-12-19T03:15:57;101654.94;;;1.65;98.30
75692;BME280;64307;52.508;6.090;2022-12-19T03:18:23;101663.66;;;1.67;98.30
75692;BME280;64307;52.508;6.090;2022-12-19T03:20:55;101654.31;;;1.68;97.90
75692;BME280;64307;52.508;6.090;2022-12-19T03:23:24;101653.81;;;1.66;98.50
75692;BME280;64307;52.508;6.090;2022-12-19T03:25:53;101656.28;;;1.76;98.15
75692;BME280;64307;52.508;6.090;2022-12-19T03:28:26;101659.03;;;1.76;98.04
75692;BME280;64307;52.508;6.090;2022-12-19T03:30:57;101642.69;;;1.71;98.32
75692;BME280;64307;52.508;6.090;2022-12-19T03:33:26;101646.28;;;1.80;98.69
75692;BME280;64307;52.508;6.090;2022-12-19T03:35:55;101646.28;;;1.80;98.45
75692;BME280;64307;52.508;6.090;2022-12-19T03:38:21;101634.97;;;1.82;98.20
75692;BME280;64307;52.508;6.090;2022-12-19T03:40:48;101620.91;;;1.83;98.16
75692;BME280;64307;52.508;6.090;2022-12-19T03:43:15;101634.03;;;1.86;98.14
75692;BME280;64307;52.508;6.090;2022-12-19T03:48:37;101623.06;;;1.95;97.04
75692;BME280;64307;52.508;6.090;2022-12-19T03:54:23;101628.53;;;2.03;97.60
75692;BME280;64307;52.508;6.090;2022-12-19T03:57:00;101631.16;;;2.08;97.12
75692;BME280;64307;52.508;6.090;2022-12-19T03:59:34;101635.03;;;2.16;96.90
75692;BME280;64307;52.508;6.090;2022-12-19T04:02:01;101627.28;;;2.09;97.21
75692;BME280;64307;52.508;6.090;2022-12-19T04:04:29;101614.81;;;2.12;96.93
75692;BME280;64307;52.508;6.090;2022-12-19T04:06:56;101611.78;;;2.13;97.05
75692;BME280;64307;52.508;6.090;2022-12-19T04:09:23;101602.41;;;2.14;97.21
75692;BME280;64307;52.508;6.090;2022-12-19T04:11:53;101603.69;;;2.17;97.84
75692;BME280;64307;52.508;6.090;2022-12-19T04:14:23;101596.91;;;2.14;98.35
75692;BME280;64307;52.508;6.090;2022-12-19T04:16:59;101593.53;;;2.17;98.26
75692;BME280;64307;52.508;6.090;2022-12-19T04:19:39;101587.84;;;2.22;97.50
75692;BME280;64307;52.508;6.090;2022-12-19T04:22:14;101583.31;;;2.26;98.26
75692;BME280;64307;52.508;6.090;2022-12-19T04:24:42;101572.81;;;2.28;97.62
75692;BME280;64307;52.508;6.090;2022-12-19T04:27:10;101570.72;;;2.25;98.06
75692;BME280;64307;52.508;6.090;2022-12-19T04:29:37;101578.78;;;2.30;98.05
75692;BME280;64307;52.508;6.090;2022-12-19T04:32:04;101582.84;;;2.33;97.97
75692;BME280;64307;52.508;6.090;2022-12-19T04:34:31;101573.16;;;2.35;98.20
75692;BME280;64307;52.508;6.090;2022-12-19T04:36:56;101581.41;;;2.35;97.81
75692;BME280;64307;52.508;6.090;2022-12-19T04:39:22;101563.75;;;2.36;98.55
75692;BME280;64307;52.508;6.090;2022-12-19T04:41:47;101569.25;;;2.36;98.79
75692;BME280;64307;52.508;6.090;2022-12-19T04:44:12;101560.88;;;2.41;97.69
75692;BME280;64307;52.508;6.090;2022-12-19T04:46:37;101563.63;;;2.41;98.42
75692;BME280;64307;52.508;6.090;2022-12-19T04:49:03;101557.28;;;2.41;98.72
75692;BME280;64307;52.508;6.090;2022-12-19T04:51:28;101561.16;;;2.48;98.12
75692;BME280;64307;52.508;6.090;2022-12-19T04:53:53;101555.66;;;2.48;98.38
75692;BME280;64307;52.508;6.090;2022-12-19T04:56:18;101561.66;;;2.50;97.73
75692;BME280;64307;52.508;6.090;2022-12-19T04:58:44;101555.66;;;2.48;98.10
75692;BME280;64307;52.508;6.090;2022-12-19T05:01:09;101542.09;;;2.43;99.32
75692;BME280;64307;52.508;6.090;2022-12-19T05:03:35;101552.28;;;2.52;98.26
75692;BME280;64307;52.508;6.090;2022-12-19T05:06:09;101555.66;;;2.57;99.18
75692;BME280;64307;52.508;6.090;2022-12-19T05:08:36;101539.34;;;2.61;98.14
75692;BME280;64307;52.508;6.090;2022-12-19T05:11:03;101538.34;;;2.57;98.23
75692;BME280;64307;52.508;6.090;2022-12-19T05:13:29;101537.34;;;2.70;98.71
75692;BME280;64307;52.508;6.090;2022-12-19T05:15:56;101538.19;;;2.70;97.96
75692;BME280;64307;52.508;6.090;2022-12-19T05:18:21;101526.69;;;2.77;98.45
75692;BME280;64307;52.508;6.090;2022-12-19T05:20:47;101541.06;;;2.82;98.85
75692;BME280;64307;52.508;6.090;2022-12-19T05:23:13;101534.09;;;2.85;98.10
75692;BME280;64307;52.508;6.090;2022-12-19T05:25:38;101531.34;;;2.85;98.30
75692;BME280;64307;52.508;6.090;2022-12-19T05:28:03;101546.53;;;2.91;98.13
75692;BME280;64307;52.508;6.090;2022-12-19T05:30:28;101533.25;;;2.93;98.07
75692;BME280;64307;52.508;6.090;2022-12-19T05:32:54;101532.59;;;2.96;98.06
75692;BME280;64307;52.508;6.090;2022-12-19T05:35:19;101523.22;;;2.97;98.16
75692;BME280;64307;52.508;6.090;2022-12-19T05:37:44;101516.25;;;2.99;98.42
75692;BME280;64307;52.508;6.090;2022-12-19T05:40:10;101521.41;;;3.01;98.59
75692;BME280;64307;52.508;6.090;2022-12-19T05:42:35;101516.06;;;3.04;98.86
75692;BME280;64307;52.508;6.090;2022-12-19T05:45:00;101525.59;;;3.07;98.64
75692;BME280;64307;52.508;6.090;2022-12-19T05:47:26;101523.47;;;3.12;98.35
75692;BME280;64307;52.508;6.090;2022-12-19T05:49:51;101511.34;;;3.13;98.72
75692;BME280;64307;52.508;6.090;2022-12-19T05:52:16;101518.44;;;3.14;98.39
75692;BME280;64307;52.508;6.090;2022-12-19T05:54:41;101530.44;;;3.10;98.47
75692;BME280;64307;52.508;6.090;2022-12-19T05:57:07;101532.03;;;3.19;99.02
75692;BME280;64307;52.508;6.090;2022-12-19T05:59:32;101531.88;;;3.16;98.55
75692;BME280;64307;52.508;6.090;2022-12-19T06:01:57;101513.09;;;3.18;99.37
75692;BME280;64307;52.508;6.090;2022-12-19T06:04:22;101509.00;;;3.24;98.95
75692;BME280;64307;52.508;6.090;2022-12-19T06:06:48;101523.53;;;3.33;98.42
75692;BME280;64307;52.508;6.090;2022-12-19T06:09:13;101532.63;;;3.25;99.16
75692;BME280;64307;52.508;6.090;2022-12-19T06:11:38;101534.56;;;3.24;99.40
75692;BME280;64307;52.508;6.090;2022-12-19T06:14:04;101527.91;;;3.34;99.28
75692;BME280;64307;52.508;6.090;2022-12-19T06:16:29;101530.66;;;3.34;99.32
75692;BME280;64307;52.508;6.090;2022-12-19T06:18:54;101521.13;;;3.31;98.88
75692;BME280;64307;52.508;6.090;2022-12-19T06:21:21;101529.00;;;3.42;98.73
75692;BME280;64307;52.508;6.090;2022-12-19T06:23:47;101530.78;;;3.38;99.49
75692;BME280;64307;52.508;6.090;2022-12-19T06:26:14;101516.66;;;3.48;98.98
75692;BME280;64307;52.508;6.090;2022-12-19T06:28:40;101521.16;;;3.52;99.77
75692;BME280;64307;52.508;6.090;2022-12-19T06:31:05;101509.94;;;3.57;99.76
75692;BME280;64307;52.508;6.090;2022-12-19T06:33:31;101512.50;;;3.62;99.25
75692;BME280;64307;52.508;6.090;2022-12-19T06:35:57;101508.28;;;3.65;98.83
75692;BME280;64307;52.508;6.090;2022-12-19T06:38:23;101502.25;;;3.71;99.07
75692;BME280;64307;52.508;6.090;2022-12-19T06:40:49;101505.66;;;3.68;99.33
75692;BME280;64307;52.508;6.090;2022-12-19T06:43:32;101501.56;;;3.74;99.15
75692;BME280;64307;52.508;6.090;2022-12-19T06:45:57;101505.75;;;3.80;99.48
75692;BME280;64307;52.508;6.090;2022-12-19T06:48:23;101494.38;;;3.82;98.98
75692;BME280;64307;52.508;6.090;2022-12-19T06:50:49;101500.22;;;3.80;99.88
75692;BME280;64307;52.508;6.090;2022-12-19T06:53:14;101494.84;;;3.84;100.00
75692;BME280;64307;52.508;6.090;2022-12-19T06:55:39;101489.97;;;3.89;100.00
75692;BME280;64307;52.508;6.090;2022-12-19T06:58:04;101484.09;;;3.91;99.46
75692;BME280;64307;52.508;6.090;2022-12-19T07:00:32;101479.81;;;4.02;100.00
75692;BME280;64307;52.508;6.090;2022-12-19T07:03:00;101486.38;;;4.09;99.66
75692;BME280;64307;52.508;6.090;2022-12-19T07:05:27;101486.66;;;4.17;99.89
75692;BME280;64307;52.508;6.090;2022-12-19T07:07:54;101489.19;;;4.22;99.64
75692;BME280;64307;52.508;6.090;2022-12-19T07:10:20;101476.69;;;4.24;100.00
75692;BME280;64307;52.508;6.090;2022-12-19T07:12:46;101493.56;;;4.23;99.76
75692;BME280;64307;52.508;6.090;2022-12-19T07:15:11;101489.88;;;4.19;99.90
75692;BME280;64307;52.508;6.090;2022-12-19T07:17:37;101492.41;;;4.24;99.78
75692;BME280;64307;52.508;6.090;2022-12-19T07:20:02;101482.84;;;4.21;99.72
75692;BME280;64307;52.508;6.090;2022-12-19T07:22:32;101485.97;;;4.20;100.00
75692;BME280;64307;52.508;6.090;2022-12-19T07:24:59;101490.25;;;4.29;99.68
75692;BME280;64307;52.508;6.090;2022-12-19T07:27:26;101484.50;;;4.22;99.82
75692;BME280;64307;52.508;6.090;2022-12-19T07:29:52;101485.53;;;4.30;100.00
75692;BME280;64307;52.508;6.090;2022-12-19T07:32:17;101492.34;;;4.32;99.74
75692;BME280;64307;52.508;6.090;2022-12-19T07:34:43;101479.69;;;4.31;100.00
75692;BME280;64307;52.508;6.090;2022-12-19T07:37:08;101490.41;;;4.33;100.00
75692;BME280;64307;52.508;6.090;2022-12-19T07:39:33;101484.34;;;4.39;99.27
75692;BME280;64307;52.508;6.090;2022-12-19T07:41:58;101493.84;;;4.42;99.79
75692;BME280;64307;52.508;6.090;2022-12-19T07:44:24;101502.13;;;4.42;99.29
75692;BME280;64307;52.508;6.090;2022-12-19T07:46:49;101497.06;;;4.44;99.77
75692;BME280;64307;52.508;6.090;2022-12-19T07:49:14;101502.28;;;4.45;100.00
75692;BME280;64307;52.508;6.090;2022-12-19T07:51:39;101504.44;;;4.52;100.00
75692;BME280;64307;52.508;6.090;2022-12-19T07:54:05;101496.66;;;4.54;100.00
75692;BME280;64307;52.508;6.090;2022-12-19T07:56:30;101502.44;;;4.61;100.00
75692;BME280;64307;52.508;6.090;2022-12-19T07:58:55;101497.84;;;4.65;100.00
75692;BME280;64307;52.508;6.090;2022-12-19T08:01:21;101499.69;;;4.73;100.00
75692;BME280;64307;52.508;6.090;2022-12-19T08:03:46;101493.97;;;4.78;100.00
75692;BME280;64307;52.508;6.090;2022-12-19T08:06:12;101500.28;;;4.78;100.00
75692;BME280;64307;52.508;6.090;2022-12-19T08:08:37;101499.63;;;4.93;100.00
75692;BME280;64307;52.508;6.090;2022-12-19T08:13:35;101490.41;;;5.02;100.00
75692;BME280;64307;52.508;6.090;2022-12-19T08:16:00;101499.97;;;5.04;100.00
75692;BME280;64307;52.508;6.090;2022-12-19T08:18:26;101494.56;;;5.08;100.00
75692;BME280;64307;52.508;6.090;2022-12-19T08:20:51;101492.38;;;5.13;100.00
75692;BME280;64307;52.508;6.090;2022-12-19T08:23:17;101499.63;;;5.18;100.00
75692;BME280;64307;52.508;6.090;2022-12-19T08:25:42;101495.03;;;5.22;100.00
75692;BME280;64307;52.508;6.090;2022-12-19T08:28:08;101501.00;;;5.24;100.00
75692;BME280;64307;52.508;6.090;2022-12-19T08:30:33;101499.31;;;5.31;99.90
75692;BME280;64307;52.508;6.090;2022-12-19T08:32:58;101504.13;;;5.34;100.00
75692;BME280;64307;52.508;6.090;2022-12-19T08:35:24;101504.94;;;5.35;100.00
75692;BME280;64307;52.508;6.090;2022-12-19T08:37:49;101516.53;;;5.40;100.00
75692;BME280;64307;52.508;6.090;2022-12-19T08:40:14;101502.16;;;5.47;99.94
75692;BME280;64307;52.508;6.090;2022-12-19T08:42:39;101492.97;;;5.43;99.70
75692;BME280;64307;52.508;6.090;2022-12-19T08:45:07;101497.34;;;5.56;99.99
75692;BME280;64307;52.508;6.090;2022-12-19T08:47:32;101502.72;;;5.64;99.48
75692;BME280;64307;52.508;6.090;2022-12-19T08:49:58;101503.41;;;5.61;100.00
75692;BME280;64307;52.508;6.090;2022-12-19T08:52:23;101506.88;;;5.70;99.94
75692;BME280;64307;52.508;6.090;2022-12-19T08:54:48;101504.31;;;5.77;99.70
75692;BME280;64307;52.508;6.090;2022-12-19T08:57:14;101509.16;;;5.80;99.50
75692;BME280;64307;52.508;6.090;2022-12-19T08:59:39;101501.19;;;6.03;100.00
75692;BME280;64307;52.508;6.090;2022-12-19T09:02:05;101500.09;;;6.08;99.76
75692;BME280;64307;52.508;6.090;2022-12-19T09:04:30;101503.44;;;6.13;100.00
75692;BME280;64307;52.508;6.090;2022-12-19T09:06:55;101505.38;;;6.52;100.00
75692;BME280;64307;52.508;6.090;2022-12-19T09:09:20;101507.78;;;6.70;100.00
75692;BME280;64307;52.508;6.090;2022-12-19T09:11:46;101503.28;;;7.08;100.00
75692;BME280;64307;52.508;6.090;2022-12-19T09:14:11;101503.91;;;7.17;100.00
75692;BME280;64307;52.508;6.090;2022-12-19T09:16:36;101489.50;;;7.27;99.92
75692;BME280;64307;52.508;6.090;2022-12-19T09:19:01;101507.84;;;7.32;99.54
75692;BME280;64307;52.508;6.090;2022-12-19T09:21:29;101503.44;;;7.47;99.00
75692;BME280;64307;52.508;6.090;2022-12-19T09:23:56;101506.66;;;7.49;99.26
75692;BME280;64307;52.508;6.090;2022-12-19T09:26:24;101507.72;;;7.44;98.97
75692;BME280;64307;52.508;6.090;2022-12-19T09:28:49;101505.31;;;7.42;98.94
75692;BME280;64307;52.508;6.090;2022-12-19T09:31:17;101511.66;;;7.43;98.98
75692;BME280;64307;52.508;6.090;2022-12-19T09:33:43;101509.31;;;7.45;98.71
75692;BME280;64307;52.508;6.090;2022-12-19T09:36:20;101515.13;;;7.56;99.13
75692;BME280;64307;52.508;6.090;2022-12-19T09:38:47;101511.03;;;7.50;98.78
75692;BME280;64307;52.508;6.090;2022-12-19T09:44:26;101524.69;;;7.58;98.31
75692;BME280;64307;52.508;6.090;2022-12-19T09:46:57;101516.44;;;7.62;98.48
75692;BME280;64307;52.508;6.090;2022-12-19T09:49:26;101508.69;;;7.67;98.54
75692;BME280;64307;52.508;6.090;2022-12-19T09:51:57;101518.34;;;7.58;98.37
75692;BME280;64307;52.508;6.090;2022-12-19T09:54:56;101519.47;;;7.72;98.15
75692;BME280;64307;52.508;6.090;2022-12-19T09:57:33;101527.91;;;7.76;97.63
75692;BME280;64307;52.508;6.090;2022-12-19T10:00:05;101525.13;;;7.76;98.48
75692;BME280;64307;52.508;6.090;2022-12-19T10:07:29;101523.75;;;7.85;97.89
75692;BME280;64307;52.508;6.090;2022-12-19T10:09:54;101511.13;;;7.88;97.92
75692;BME280;64307;52.508;6.090;2022-12-19T10:12:41;101515.94;;;7.91;97.95
75692;BME280;64307;52.508;6.090;2022-12-19T10:15:22;101514.50;;;7.97;97.42
75692;BME280;64307;52.508;6.090;2022-12-19T10:18:21;101513.78;;;8.00;97.38
75692;BME280;64307;52.508;6.090;2022-12-19T10:21:05;101520.19;;;8.04;96.88
75692;BME280;64307;52.508;6.090;2022-12-19T10:26:18;101507.16;;;8.04;97.23
75692;BME280;64307;52.508;6.090;2022-12-19T10:31:53;101504.28;;;8.01;97.41
75692;BME280;64307;52.508;6.090;2022-12-19T10:34:31;101502.81;;;8.07;97.00
75692;BME280;64307;52.508;6.090;2022-12-19T10:37:01;101509.63;;;8.09;97.52
75692;BME280;64307;52.508;6.090;2022-12-19T10:42:11;101495.03;;;8.12;97.48
75692;BME280;64307;52.508;6.090;2022-12-19T10:44:42;101499.78;;;8.12;97.18
75692;BME280;64307;52.508;6.090;2022-12-19T10:47:13;101502.91;;;8.10;97.50
75692;BME280;64307;52.508;6.090;2022-12-19T10:49:39;101498.44;;;8.06;97.91
75692;BME280;64307;52.508;6.090;2022-12-19T10:52:06;101514.72;;;8.07;97.80
75692;BME280;64307;52.508;6.090;2022-12-19T10:59:56;101506.84;;;8.09;97.97
75692;BME280;64307;52.508;6.090;2022-12-19T11:05:04;101510.13;;;8.15;97.69
75692;BME280;64307;52.508;6.090;2022-12-19T11:07:58;101509.41;;;8.18;97.82
75692;BME280;64307;52.508;6.090;2022-12-19T11:10:39;101514.22;;;8.21;97.83
75692;BME280;64307;52.508;6.090;2022-12-19T11:15:49;101518.44;;;8.31;96.98
75692;BME280;64307;52.508;6.090;2022-12-19T11:18:14;101515.28;;;8.32;97.58
75692;BME280;64307;52.508;6.090;2022-12-19T11:20:52;101507.00;;;8.36;96.43
75692;BME280;64307;52.508;6.090;2022-12-19T11:23:18;101507.53;;;8.41;96.69
75692;BME280;64307;52.508;6.090;2022-12-19T11:25:52;101508.25;;;8.38;96.86
75692;BME280;64307;52.508;6.090;2022-12-19T11:28:24;101500.09;;;8.45;96.89
75692;BME280;64307;52.508;6.090;2022-12-19T11:31:01;101498.97;;;8.50;96.10
75692;BME280;64307;52.508;6.090;2022-12-19T11:33:28;101494.66;;;8.52;95.68
75692;BME280;64307;52.508;6.090;2022-12-19T11:35:55;101494.97;;;8.47;96.50
75692;BME280;64307;52.508;6.090;2022-12-19T11:41:14;101491.09;;;8.52;96.78
75692;BME280;64307;52.508;6.090;2022-12-19T11:44:09;101490.50;;;8.62;96.16
75692;BME280;64307;52.508;6.090;2022-12-19T11:46:45;101496.84;;;8.62;95.96
75692;BME280;64307;52.508;6.090;2022-12-19T11:49:26;101497.59;;;8.59;96.22
75692;BME280;64307;52.508;6.090;2022-12-19T11:54:31;101498.47;;;8.63;96.15
75692;BME280;64307;52.508;6.090;2022-12-19T11:56:59;101487.41;;;8.67;95.41
75692;BME280;64307;52.508;6.090;2022-12-19T12:01:57;101490.63;;;8.69;96.10
75692;BME280;64307;52.508;6.090;2022-12-19T12:07:17;101486.88;;;8.80;95.82
75692;BME280;64307;52.508;6.090;2022-12-19T12:12:21;101481.91;;;8.70;96.00
75692;BME280;64307;52.508;6.090;2022-12-19T12:17:46;101477.59;;;8.73;95.86
75692;BME280;64307;52.508;6.090;2022-12-19T12:23:27;101478.13;;;8.78;96.40
75692;BME280;64307;52.508;6.090;2022-12-19T12:26:01;101477.22;;;8.74;96.20
75692;BME280;64307;52.508;6.090;2022-12-19T12:28:52;101477.22;;;8.74;96.36
75692;BME280;64307;52.508;6.090;2022-12-19T12:31:43;101459.66;;;8.67;96.14
75692;BME280;64307;52.508;6.090;2022-12-19T12:40:19;101455.81;;;8.75;96.24
75692;BME280;64307;52.508;6.090;2022-12-19T12:45:40;101467.78;;;8.79;95.93
75692;BME280;64307;52.508;6.090;2022-12-19T12:48:35;101465.97;;;8.86;95.82
75692;BME280;64307;52.508;6.090;2022-12-19T12:51:03;101458.13;;;8.92;95.57
75692;BME280;64307;52.508;6.090;2022-12-19T12:53:37;101460.31;;;8.83;95.61
75692;BME280;64307;52.508;6.090;2022-12-19T12:56:08;101465.78;;;8.98;95.04
75692;BME280;64307;52.508;6.090;2022-12-19T13:11:49;101451.50;;;9.00;94.32
75692;BME280;64307;52.508;6.090;2022-12-19T13:23:03;101424.59;;;9.04;93.65
75692;BME280;64307;52.508;6.090;2022-12-19T13:28:13;101423.66;;;9.19;92.46
75692;BME280;64307;52.508;6.090;2022-12-19T13:39:30;101411.38;;;9.24;91.72
75692;BME280;64307;52.508;6.090;2022-12-19T13:42:11;101398.81;;;9.30;91.69
75692;BME280;64307;52.508;6.090;2022-12-19T13:44:58;101403.03;;;9.24;91.46
75692;BME280;64307;52.508;6.090;2022-12-19T13:47:31;101396.94;;;9.11;92.46
75692;BME280;64307;52.508;6.090;2022-12-19T13:49:59;101396.16;;;9.14;92.39
75692;BME280;64307;52.508;6.090;2022-12-19T13:52:24;101394.72;;;9.24;92.33
75692;BME280;64307;52.508;6.090;2022-12-19T13:54:55;101395.63;;;9.31;91.45
75692;BME280;64307;52.508;6.090;2022-12-19T13:57:26;101390.03;;;9.28;91.88
75692;BME280;64307;52.508;6.090;2022-12-19T13:59:56;101394.81;;;9.31;91.45
75692;BME280;64307;52.508;6.090;2022-12-19T14:02:30;101378.09;;;9.27;90.99
75692;BME280;64307;52.508;6.090;2022-12-19T14:04:56;101372.63;;;9.34;90.71
75692;BME280;64307;52.508;6.090;2022-12-19T14:07:39;101374.13;;;9.28;90.45
75692;BME280;64307;52.508;6.090;2022-12-19T14:10:13;101391.63;;;9.29;90.24
75692;BME280;64307;52.508;6.090;2022-12-19T14:12:42;101388.28;;;9.20;90.34
75692;BME280;64307;52.508;6.090;2022-12-19T14:15:33;101387.53;;;9.19;90.63
75692;BME280;64307;52.508;6.090;2022-12-19T14:18:00;101383.47;;;9.13;91.00
75692;BME280;64307;52.508;6.090;2022-12-19T14:20:27;101385.63;;;9.00;91.46
75692;BME280;64307;52.508;6.090;2022-12-19T14:22:57;101363.69;;;8.92;91.76
75692;BME280;64307;52.508;6.090;2022-12-19T14:25:30;101367.25;;;8.92;91.46
75692;BME280;64307;52.508;6.090;2022-12-19T14:28:03;101363.28;;;8.93;90.96
75692;BME280;64307;52.508;6.090;2022-12-19T14:30:32;101360.69;;;8.78;91.65
75692;BME280;64307;52.508;6.090;2022-12-19T14:33:04;101361.78;;;8.73;91.23
75692;BME280;64307;52.508;6.090;2022-12-19T14:35:33;101374.94;;;8.76;92.21
75692;BME280;64307;52.508;6.090;2022-12-19T14:38:02;101374.06;;;8.72;91.81
75692;BME280;64307;52.508;6.090;2022-12-19T14:40:31;101377.38;;;8.81;91.54
75692;BME280;64307;52.508;6.090;2022-12-19T14:43:06;101363.50;;;8.81;91.60
75692;BME280;64307;52.508;6.090;2022-12-19T14:45:51;101359.66;;;8.89;91.30
75692;BME280;64307;52.508;6.090;2022-12-19T14:48:34;101346.41;;;8.79;91.52
75692;BME280;64307;52.508;6.090;2022-12-19T14:53:32;101343.94;;;8.74;91.38
75692;BME280;64307;52.508;6.090;2022-12-19T14:58:29;101361.22;;;8.64;91.77
75692;BME280;64307;52.508;6.090;2022-12-19T15:00:56;101359.94;;;8.58;92.21
75692;BME280;64307;52.508;6.090;2022-12-19T15:03:30;101358.59;;;8.49;92.45
75692;BME280;64307;52.508;6.090;2022-12-19T15:06:11;101385.44;;;8.41;92.68
75692;BME280;64307;52.508;6.090;2022-12-19T15:08:37;101381.34;;;8.35;93.48
75692;BME280;64307;52.508;6.090;2022-12-19T15:11:04;101380.66;;;8.42;92.88
75692;BME280;64307;52.508;6.090;2022-12-19T15:13:55;101378.94;;;8.34;92.97